createdAt,value
2017-11-07T00:00:30.664Z,8.20
2017-11-07T00:02:56.702Z,6.80
2017-11-07T00:05:22.790Z,6.77
2017-11-07T00:07:49.314Z,6.63
2017-11-07T00:10:15.414Z,7.07
2017-11-07T00:12:41.573Z,8.50
2017-11-07T00:15:07.659Z,7.43
2017-11-07T00:17:33.770Z,7.63
2017-11-07T00:20:00.286Z,6.73
2017-11-07T00:22:34.502Z,7.37
2017-11-07T00:25:01.046Z,9.27
2017-11-07T00:27:27.211Z,6.77
2017-11-07T00:29:53.301Z,7.30
2017-11-07T00:32:19.374Z,7.60
2017-11-07T00:34:45.446Z,7.63
2017-11-07T00:37:11.879Z,8.87
2017-11-07T00:39:37.950Z,6.90
2017-11-07T00:42:04.052Z,7.50
2017-11-07T00:44:30.150Z,7.37
2017-11-07T00:46:56.243Z,7.80
2017-11-07T00:49:22.733Z,6.57
2017-11-07T00:51:48.858Z,7.20
2017-11-07T00:54:14.923Z,7.00
2017-11-07T00:56:41.327Z,6.60
2017-11-07T00:59:07.473Z,6.93
2017-11-07T01:01:33.627Z,7.90
2017-11-07T01:04:00.030Z,7.27
2017-11-07T01:06:26.123Z,7.17
2017-11-07T01:08:52.200Z,8.07
2017-11-07T01:11:18.360Z,8.80
2017-11-07T01:13:44.438Z,6.83
2017-11-07T01:16:10.947Z,8.83
2017-11-07T01:18:37.018Z,7.00
2017-11-07T01:21:03.102Z,6.53
2017-11-07T01:23:29.131Z,7.43
2017-11-07T01:25:55.276Z,7.70
2017-11-07T01:28:21.895Z,7.60
2017-11-07T01:30:47.987Z,7.20
2017-11-07T01:33:14.047Z,7.00
2017-11-07T01:35:40.583Z,7.20
2017-11-07T01:38:06.691Z,7.90
2017-11-07T01:40:32.836Z,7.37
2017-11-07T01:42:58.947Z,6.80
2017-11-07T01:45:25.043Z,7.87
2017-11-07T01:47:51.629Z,7.70
2017-11-07T01:50:17.719Z,7.43
2017-11-07T01:52:43.845Z,6.70
2017-11-07T01:55:10.333Z,7.20
2017-11-07T01:57:36.461Z,7.43
2017-11-07T02:00:02.572Z,5.67
2017-11-07T02:02:28.662Z,7.13
2017-11-07T02:04:54.769Z,6.43
2017-11-07T02:07:21.220Z,6.67
2017-11-07T02:09:47.325Z,5.73
2017-11-07T02:12:13.459Z,5.97
2017-11-07T02:14:39.602Z,6.33
2017-11-07T02:17:05.740Z,6.63
2017-11-07T02:19:32.227Z,4.80
2017-11-07T02:21:58.277Z,6.10
2017-11-07T02:24:24.310Z,5.17
2017-11-07T02:26:50.336Z,6.50
2017-11-07T02:29:16.463Z,6.57
2017-11-07T02:31:43.011Z,5.57
2017-11-07T02:34:09.047Z,5.10
2017-11-07T02:36:35.112Z,5.07
2017-11-07T02:39:01.634Z,5.13
2017-11-07T02:41:27.792Z,5.07
2017-11-07T02:43:53.844Z,5.33
2017-11-07T02:46:20.289Z,5.57
2017-11-07T02:48:46.384Z,6.13
2017-11-07T02:51:12.461Z,5.93
2017-11-07T02:53:38.538Z,5.43
2017-11-07T02:56:04.616Z,5.20
2017-11-07T02:58:31.181Z,6.80
2017-11-07T03:00:57.298Z,5.10
2017-11-07T03:03:23.466Z,5.47
2017-11-07T03:05:49.565Z,5.27
2017-11-07T03:08:15.666Z,4.87
2017-11-07T03:10:42.246Z,5.47
2017-11-07T03:13:08.379Z,6.03
2017-11-07T03:15:34.428Z,5.53
2017-11-07T03:18:00.886Z,6.40
2017-11-07T03:20:26.990Z,4.83
2017-11-07T03:22:53.118Z,4.90
2017-11-07T03:25:19.237Z,6.80
2017-11-07T03:27:45.301Z,8.87
2017-11-07T03:30:11.720Z,7.90
2017-11-07T03:32:37.866Z,6.77
2017-11-07T03:35:03.998Z,5.80
2017-11-07T03:37:30.134Z,5.13
2017-11-07T03:39:56.259Z,5.40
2017-11-07T03:42:22.698Z,5.40
2017-11-07T03:44:48.843Z,5.87
2017-11-07T03:47:15.018Z,5.97
2017-11-07T03:49:41.123Z,7.60
2017-11-07T03:52:07.212Z,8.17
2017-11-07T03:54:33.752Z,10.80
2017-11-07T03:56:59.822Z,7.00
2017-11-07T03:59:25.905Z,5.80
2017-11-07T04:01:52.460Z,5.53
2017-11-07T04:04:18.557Z,6.47
2017-11-07T04:06:44.831Z,6.90
2017-11-07T04:09:10.966Z,4.87
2017-11-07T04:11:37.106Z,6.20
2017-11-07T04:14:03.205Z,5.30
2017-11-07T04:16:29.735Z,5.77
2017-11-07T04:18:55.814Z,5.83
2017-11-07T04:21:21.886Z,6.37
2017-11-07T04:23:48.430Z,6.20
2017-11-07T04:26:14.552Z,4.90
2017-11-07T04:28:40.605Z,7.03
2017-11-07T04:31:06.693Z,5.33
2017-11-07T04:33:32.750Z,5.50
2017-11-07T04:35:59.246Z,5.40
2017-11-07T04:38:25.323Z,7.10
2017-11-07T04:40:51.516Z,6.43
2017-11-07T04:43:17.621Z,7.73
2017-11-07T04:45:43.694Z,6.60
2017-11-07T04:48:10.206Z,5.63
2017-11-07T04:50:36.351Z,6.97
2017-11-07T04:53:02.371Z,6.50
2017-11-07T04:55:28.819Z,6.80
2017-11-07T04:57:54.871Z,6.40
2017-11-07T05:00:20.958Z,7.23
2017-11-07T05:02:47.396Z,7.20
2017-11-07T05:05:13.489Z,7.70
2017-11-07T05:07:39.512Z,7.50
2017-11-07T05:10:05.702Z,8.67
2017-11-07T05:12:31.853Z,9.37
2017-11-07T05:14:58.199Z,12.20
2017-11-07T05:17:24.286Z,9.30
2017-11-07T05:19:50.388Z,10.10
2017-11-07T05:22:16.791Z,9.77
2017-11-07T05:24:42.903Z,13.00
2017-11-07T05:27:08.933Z,9.23
2017-11-07T05:29:35.394Z,8.77
2017-11-07T05:32:01.490Z,10.23
2017-11-07T05:34:27.542Z,10.90
2017-11-07T05:36:53.655Z,10.43
2017-11-07T05:39:19.731Z,9.40
2017-11-07T05:41:46.165Z,10.27
2017-11-07T05:44:12.230Z,10.13
2017-11-07T05:46:38.315Z,8.00
2017-11-07T05:49:04.683Z,12.13
2017-11-07T05:51:30.764Z,8.90
2017-11-07T05:53:56.821Z,9.13
2017-11-07T05:56:22.969Z,9.13
2017-11-07T05:58:49.042Z,8.90
2017-11-07T06:01:15.570Z,9.73
2017-11-07T06:03:41.655Z,10.20
2017-11-07T06:06:07.733Z,9.77
2017-11-07T06:08:33.933Z,11.60
2017-11-07T06:11:00.015Z,10.83
2017-11-07T06:13:26.120Z,11.23
2017-11-07T06:15:52.238Z,10.47
2017-11-07T06:18:18.364Z,11.90
2017-11-07T06:20:44.558Z,10.80
2017-11-07T06:23:10.639Z,10.40
2017-11-07T06:25:36.718Z,10.90
2017-11-07T06:28:02.764Z,13.37
2017-11-07T06:30:28.819Z,11.30
2017-11-07T06:32:54.922Z,12.37
2017-11-07T06:35:21.014Z,11.80
2017-11-07T06:37:47.951Z,12.30
2017-11-07T06:40:14.442Z,11.90
2017-11-07T06:42:40.523Z,12.40
2017-11-07T06:45:06.682Z,12.57
2017-11-07T06:47:32.785Z,13.23
2017-11-07T06:49:58.798Z,12.20
2017-11-07T06:52:24.891Z,13.50
2017-11-07T06:54:50.966Z,13.40
2017-11-07T06:57:17.098Z,12.97
2017-11-07T06:59:43.226Z,14.23
2017-11-07T07:02:09.350Z,12.10
2017-11-07T07:04:35.420Z,12.77
2017-11-07T07:07:01.578Z,13.57
2017-11-07T07:09:27.654Z,12.20
2017-11-07T07:11:53.746Z,12.90
2017-11-07T07:14:19.829Z,12.70
2017-11-07T07:16:46.102Z,12.00
2017-11-07T07:19:12.178Z,12.43
2017-11-07T07:21:38.264Z,13.40
2017-11-07T07:24:04.408Z,12.93
2017-11-07T07:26:30.519Z,12.17
2017-11-07T07:28:56.615Z,12.80
2017-11-07T07:31:22.679Z,12.63
2017-11-07T07:33:48.803Z,12.90
2017-11-07T07:36:14.839Z,14.70
2017-11-07T07:38:40.959Z,13.03
2017-11-07T07:41:07.052Z,11.97
2017-11-07T07:43:33.183Z,11.77
2017-11-07T07:45:59.271Z,11.60
2017-11-07T07:48:25.358Z,12.53
2017-11-07T07:50:51.811Z,12.93
2017-11-07T07:53:17.882Z,13.40
2017-11-07T07:55:43.970Z,12.13
2017-11-07T07:58:10.061Z,11.87
2017-11-07T08:00:36.151Z,13.53
2017-11-07T08:03:02.238Z,11.80
2017-11-07T08:05:28.640Z,12.43
2017-11-07T08:07:54.711Z,12.03
2017-11-07T08:10:20.821Z,14.17
2017-11-07T08:12:46.973Z,13.57
2017-11-07T08:15:13.099Z,13.23
2017-11-07T08:17:39.311Z,13.90
2017-11-07T08:20:05.766Z,12.97
2017-11-07T08:22:31.820Z,13.00
2017-11-07T08:24:57.913Z,15.43
2017-11-07T08:27:23.983Z,11.90
2017-11-07T08:29:50.123Z,13.00
2017-11-07T08:32:16.219Z,12.20
2017-11-07T08:34:42.319Z,14.70
2017-11-07T08:37:08.455Z,14.00
2017-11-07T08:39:34.532Z,14.17
2017-11-07T08:42:00.694Z,14.77
2017-11-07T08:44:26.748Z,14.27
2017-11-07T08:46:52.815Z,13.97
2017-11-07T08:49:18.929Z,13.20
2017-11-07T08:51:45.065Z,15.37
2017-11-07T08:54:11.145Z,15.17
2017-11-07T08:56:37.287Z,15.70
2017-11-07T08:59:03.482Z,14.63
2017-11-07T09:01:29.615Z,14.70
2017-11-07T09:03:55.705Z,16.77
2017-11-07T09:06:21.804Z,15.00
2017-11-07T09:08:47.894Z,15.17
2017-11-07T09:11:13.958Z,15.93
2017-11-07T09:13:40.021Z,15.80
2017-11-07T09:16:06.082Z,14.93
2017-11-07T09:18:32.198Z,14.30
2017-11-07T09:20:58.305Z,17.27
2017-11-07T09:23:24.659Z,15.83
2017-11-07T09:25:50.747Z,19.07
2017-11-07T09:28:16.823Z,16.90
2017-11-07T09:30:42.965Z,16.63
2017-11-07T09:33:09.090Z,18.03
2017-11-07T09:35:35.211Z,18.40
2017-11-07T09:38:01.292Z,18.20
2017-11-07T09:40:27.373Z,16.47
2017-11-07T09:42:53.533Z,18.30
2017-11-07T09:45:19.673Z,16.97
2017-11-07T09:47:45.754Z,16.90
2017-11-07T09:50:11.931Z,17.57
2017-11-07T09:52:38.228Z,18.40
2017-11-07T09:55:04.292Z,18.63
2017-11-07T09:57:30.590Z,16.93
2017-11-07T09:59:56.674Z,20.20
2017-11-07T10:02:22.790Z,18.00
2017-11-07T10:04:49.029Z,19.70
2017-11-07T10:07:15.079Z,20.37
2017-11-07T10:09:41.154Z,18.30
2017-11-07T10:12:07.245Z,17.73
2017-11-07T10:14:33.335Z,17.60
2017-11-07T10:16:59.554Z,18.60
2017-11-07T10:19:25.646Z,19.27
2017-11-07T10:21:51.775Z,16.80
2017-11-07T10:24:17.893Z,18.40
2017-11-07T10:26:43.973Z,18.00
2017-11-07T10:29:10.126Z,17.70
2017-11-07T10:31:36.194Z,18.90
2017-11-07T10:34:02.304Z,17.87
2017-11-07T10:36:28.414Z,18.60
2017-11-07T10:38:54.559Z,18.97
2017-11-07T10:41:20.755Z,21.30
2017-11-07T10:43:46.902Z,21.00
2017-11-07T10:46:12.980Z,21.30
2017-11-07T10:48:39.199Z,20.90
2017-11-07T10:51:05.326Z,20.27
2017-11-07T10:53:31.388Z,21.17
2017-11-07T10:55:57.474Z,21.67
2017-11-07T10:58:23.673Z,21.10
2017-11-07T11:00:49.791Z,22.70
2017-11-07T11:03:15.894Z,21.47
2017-11-07T11:05:41.938Z,23.87
2017-11-07T11:08:08.081Z,23.80
2017-11-07T11:10:34.176Z,21.93
2017-11-07T11:13:00.298Z,21.07
2017-11-07T11:15:26.419Z,21.97
2017-11-07T11:17:52.523Z,21.60
2017-11-07T11:20:18.675Z,23.73
2017-11-07T11:22:44.776Z,21.40
2017-11-07T11:25:10.894Z,22.53
2017-11-07T11:27:36.998Z,23.80
2017-11-07T11:30:03.117Z,20.50
2017-11-07T11:32:29.210Z,21.40
2017-11-07T11:34:55.110Z,21.80
2017-11-07T11:37:21.240Z,21.83
2017-11-07T11:39:47.315Z,20.83
2017-11-07T11:42:13.434Z,20.80
2017-11-07T11:44:39.597Z,19.73
2017-11-07T11:47:05.666Z,19.03
2017-11-07T11:49:31.902Z,18.90
2017-11-07T11:51:58.143Z,20.83
2017-11-07T11:54:24.243Z,20.00
2017-11-07T11:56:51.367Z,20.23
2017-11-07T11:59:17.458Z,20.73
2017-11-07T12:01:43.543Z,21.63
2017-11-07T12:04:09.662Z,23.13
2017-11-07T12:06:35.761Z,22.33
2017-11-07T12:09:01.909Z,20.43
2017-11-07T12:11:27.974Z,24.40
2017-11-07T12:13:54.087Z,24.43
2017-11-07T12:16:20.319Z,22.30
2017-11-07T12:18:46.449Z,25.70
2017-11-07T12:21:12.622Z,23.77
2017-11-07T12:23:38.759Z,21.67
2017-11-07T12:28:38.054Z,22.23
2017-11-07T12:31:04.165Z,21.70
2017-11-07T12:33:30.255Z,22.40
2017-11-07T12:35:56.354Z,23.20
2017-11-07T12:38:22.441Z,23.10
2017-11-07T12:40:48.583Z,22.13
2017-11-07T12:43:14.700Z,22.60
2017-11-07T12:45:40.778Z,24.63
2017-11-07T12:48:06.871Z,22.53
2017-11-07T12:50:45.165Z,24.20
2017-11-07T12:53:11.248Z,22.77
2017-11-07T12:55:37.331Z,21.87
2017-11-07T12:58:03.488Z,25.67
2017-11-07T13:00:29.582Z,24.13
2017-11-07T13:02:55.695Z,21.70
2017-11-07T13:05:21.850Z,24.37
2017-11-07T13:07:47.879Z,27.63
2017-11-07T13:10:13.975Z,24.27
2017-11-07T13:12:40.064Z,21.70
2017-11-07T13:15:06.178Z,22.50
2017-11-07T13:17:32.306Z,23.10
2017-11-07T13:19:58.423Z,21.57
2017-11-07T13:22:24.558Z,20.97
2017-11-07T13:24:50.619Z,19.97
2017-11-07T13:27:16.749Z,20.53
2017-11-07T13:29:42.865Z,23.17
2017-11-07T13:32:08.939Z,19.23
2017-11-07T13:34:35.032Z,20.10
2017-11-07T13:37:01.107Z,21.00
2017-11-07T13:39:27.194Z,20.30
2017-11-07T13:41:53.314Z,20.13
2017-11-07T13:44:19.454Z,20.13
2017-11-07T13:46:45.571Z,18.50
2017-11-07T13:49:11.647Z,19.00
2017-11-07T13:51:37.839Z,21.07
2017-11-07T13:54:04.065Z,21.47
2017-11-07T13:56:30.134Z,21.37
2017-11-07T13:58:56.247Z,19.00
2017-11-07T14:01:22.364Z,21.40
2017-11-07T14:03:48.540Z,23.87
2017-11-07T14:06:14.631Z,21.87
2017-11-07T14:08:40.706Z,24.80
2017-11-07T14:11:06.789Z,22.57
2017-11-07T14:13:32.883Z,22.67
2017-11-07T14:15:58.990Z,21.23
2017-11-07T14:18:25.024Z,21.10
2017-11-07T14:20:51.163Z,23.00
2017-11-07T14:23:17.257Z,22.47
2017-11-07T14:25:43.364Z,20.47
2017-11-07T14:28:09.533Z,20.80
2017-11-07T14:30:35.595Z,20.37
2017-11-07T14:33:01.704Z,21.97
2017-11-07T14:35:27.803Z,22.93
2017-11-07T14:37:53.878Z,22.33
2017-11-07T14:40:20.419Z,23.97
2017-11-07T14:42:46.507Z,22.97
2017-11-07T14:45:12.582Z,26.63
2017-11-07T14:47:38.699Z,25.37
2017-11-07T14:50:04.784Z,26.20
2017-11-07T14:52:30.911Z,22.03
2017-11-07T14:54:57.007Z,24.67
2017-11-07T14:57:23.102Z,26.77
2017-11-07T14:59:49.210Z,22.70
2017-11-07T15:02:16.225Z,26.93
2017-11-07T15:04:42.346Z,25.40
2017-11-07T15:07:08.490Z,28.33
2017-11-07T15:09:34.652Z,25.93
2017-11-07T15:12:00.758Z,27.87
2017-11-07T15:14:26.855Z,26.50
2017-11-07T15:16:52.956Z,24.47
2017-11-07T15:19:19.035Z,25.80
2017-11-07T15:21:45.113Z,25.50
2017-11-07T15:24:11.238Z,25.33
2017-11-07T15:26:37.347Z,25.87
2017-11-07T15:29:03.459Z,26.33
2017-11-07T15:31:29.530Z,26.10
2017-11-07T15:33:55.596Z,25.73
2017-11-07T15:36:21.725Z,25.77
2017-11-07T15:38:48.005Z,26.27
2017-11-07T15:41:14.124Z,26.23
2017-11-07T15:43:40.242Z,25.80
2017-11-07T15:46:06.392Z,26.60
2017-11-07T15:48:32.474Z,25.33
2017-11-07T15:50:58.621Z,26.40
2017-11-07T15:53:24.728Z,25.57
2017-11-07T15:55:50.885Z,26.77
2017-11-07T15:58:16.939Z,26.87
2017-11-07T16:00:43.047Z,25.07
2017-11-07T16:03:09.138Z,25.97
2017-11-07T16:05:35.180Z,23.43
2017-11-07T16:08:01.331Z,26.33
2017-11-07T16:10:27.351Z,26.07
2017-11-07T16:12:53.430Z,26.00
2017-11-07T16:15:19.515Z,28.13
2017-11-07T16:17:45.651Z,25.97
2017-11-07T16:20:11.757Z,24.03
2017-11-07T16:22:37.880Z,25.33
2017-11-07T16:25:04.303Z,23.50
2017-11-07T16:27:30.475Z,24.23
2017-11-07T16:29:56.706Z,25.27
2017-11-07T16:32:22.825Z,24.60
2017-11-07T16:34:48.992Z,27.70
2017-11-07T16:37:15.075Z,25.10
2017-11-07T16:39:41.228Z,25.00
2017-11-07T16:42:07.338Z,24.93
2017-11-07T16:44:33.439Z,25.30
2017-11-07T16:46:59.549Z,25.73
2017-11-07T16:49:25.615Z,23.73
2017-11-07T16:51:51.770Z,27.73
2017-11-07T16:54:17.885Z,26.60
2017-11-07T16:56:43.984Z,27.10
2017-11-07T16:59:10.102Z,24.20
2017-11-07T17:01:36.218Z,26.03
2017-11-07T17:04:02.343Z,26.17
2017-11-07T17:06:28.439Z,26.00
2017-11-07T17:08:54.519Z,23.60
2017-11-07T17:11:20.708Z,25.93
2017-11-07T17:13:46.831Z,23.70
2017-11-07T17:16:12.919Z,24.20
2017-11-07T17:18:39.019Z,25.07
2017-11-07T17:21:05.057Z,23.20
2017-11-07T17:23:31.284Z,26.27
2017-11-07T17:25:57.459Z,28.13
2017-11-07T17:28:23.551Z,28.57
2017-11-07T17:30:49.700Z,25.80
2017-11-07T17:33:15.750Z,26.03
2017-11-07T17:35:41.971Z,25.47
2017-11-07T17:38:08.191Z,26.53
2017-11-07T17:40:34.329Z,27.80
2017-11-07T17:43:00.426Z,26.87
2017-11-07T17:45:26.558Z,25.67
2017-11-07T17:47:52.640Z,25.57
2017-11-07T17:50:18.753Z,25.17
2017-11-07T17:52:44.934Z,28.00
2017-11-07T17:55:11.043Z,28.70
2017-11-07T17:57:37.142Z,27.37
2017-11-07T18:00:03.365Z,28.73
2017-11-07T18:02:29.526Z,27.13
2017-11-07T18:04:55.694Z,27.70
2017-11-07T18:07:21.829Z,27.23
2017-11-07T18:09:48.060Z,27.97
2017-11-07T18:12:14.196Z,27.37
2017-11-07T18:14:40.337Z,28.97
2017-11-07T18:17:06.491Z,29.90
2017-11-07T18:19:32.618Z,31.43
2017-11-07T18:21:58.718Z,29.40
2017-11-07T18:24:24.923Z,29.03
2017-11-07T18:26:50.987Z,29.23
2017-11-07T18:29:17.117Z,32.37
2017-11-07T18:31:43.241Z,29.87
2017-11-07T18:34:09.433Z,30.77
2017-11-07T18:36:35.860Z,31.60
2017-11-07T18:39:02.061Z,29.60
2017-11-07T18:41:28.245Z,30.57
2017-11-07T18:43:54.415Z,30.83
2017-11-07T18:46:20.630Z,28.30
2017-11-07T18:48:46.806Z,31.67
2017-11-07T18:51:13.036Z,32.67
2017-11-07T18:53:39.401Z,30.80
2017-11-07T18:56:05.625Z,33.90
2017-11-07T18:58:31.899Z,30.90
2017-11-07T19:00:58.123Z,32.47
2017-11-07T19:03:24.368Z,30.40
2017-11-07T19:05:50.599Z,30.33
2017-11-07T19:08:16.772Z,32.67
2017-11-07T19:10:42.926Z,33.53
2017-11-07T19:13:09.301Z,32.23
2017-11-07T19:15:35.804Z,33.03
2017-11-07T19:18:01.982Z,33.23
2017-11-07T19:20:28.191Z,32.87
2017-11-07T19:22:54.517Z,32.93
2017-11-07T19:25:20.730Z,33.70
2017-11-07T19:27:47.000Z,34.37
2017-11-07T19:30:13.326Z,33.77
2017-11-07T19:32:39.581Z,34.97
2017-11-07T19:35:05.793Z,34.27
2017-11-07T19:37:32.044Z,32.33
2017-11-07T19:39:58.374Z,33.40
2017-11-07T19:42:24.736Z,34.03
2017-11-07T19:44:51.030Z,33.10
2017-11-07T19:47:17.280Z,31.37
2017-11-07T19:49:43.471Z,33.80
2017-11-07T19:52:09.776Z,34.17
2017-11-07T19:54:36.451Z,33.57
2017-11-07T19:57:02.681Z,33.17
2017-11-07T19:59:28.932Z,33.97
2017-11-07T20:01:55.195Z,34.43
2017-11-07T20:04:21.492Z,36.27
2017-11-07T20:06:47.682Z,35.60
2017-11-07T20:09:13.951Z,36.37
2017-11-07T20:11:40.238Z,33.47
2017-11-07T20:14:06.604Z,35.43
2017-11-07T20:16:32.875Z,35.60
2017-11-07T20:18:59.094Z,34.80
2017-11-07T20:21:25.383Z,34.50
2017-11-07T20:23:51.657Z,36.00
2017-11-07T20:26:18.226Z,36.70
2017-11-07T20:28:44.407Z,35.40
2017-11-07T20:31:10.541Z,36.50
2017-11-07T20:33:36.807Z,35.57
2017-11-07T20:36:03.067Z,34.90
2017-11-07T20:38:29.353Z,34.70
2017-11-07T20:40:55.543Z,33.87
2017-11-07T20:43:21.675Z,35.40
2017-11-07T20:45:47.860Z,38.87
2017-11-07T20:48:14.247Z,36.30
2017-11-07T20:50:40.456Z,33.37
2017-11-07T20:53:06.666Z,33.90
2017-11-07T20:55:32.841Z,35.43
2017-11-07T20:57:59.043Z,32.83
2017-11-07T21:00:25.285Z,36.60
2017-11-07T21:02:51.464Z,35.23
2017-11-07T21:05:17.613Z,36.73
2017-11-07T21:07:43.732Z,34.60
2017-11-07T21:10:09.829Z,35.57
2017-11-07T21:12:35.954Z,32.03
2017-11-07T21:15:02.041Z,34.63
2017-11-07T21:17:28.174Z,34.67
2017-11-07T21:19:54.319Z,33.87
2017-11-07T21:22:20.471Z,35.10
2017-11-07T21:24:46.565Z,37.13
2017-11-07T21:27:12.783Z,33.67
2017-11-07T21:29:38.891Z,34.47
2017-11-07T21:32:05.020Z,34.53
2017-11-07T21:34:31.206Z,34.93
2017-11-07T21:36:57.650Z,34.33
2017-11-07T21:39:23.698Z,36.07
2017-11-07T21:41:49.823Z,35.03
2017-11-07T21:44:16.011Z,36.80
2017-11-07T21:46:42.090Z,34.90
2017-11-07T21:49:08.232Z,36.80
2017-11-07T21:51:34.310Z,35.50
2017-11-07T21:54:00.421Z,37.10
2017-11-07T21:56:26.590Z,38.40
2017-11-07T21:58:52.709Z,39.03
2017-11-07T22:01:18.862Z,37.30
2017-11-07T22:03:46.959Z,37.50
2017-11-07T22:06:13.074Z,42.10
2017-11-07T22:08:39.154Z,36.70
2017-11-07T22:11:05.255Z,38.77
2017-11-07T22:13:31.394Z,36.17
2017-11-07T22:15:57.590Z,36.10
2017-11-07T22:18:23.678Z,38.00
2017-11-07T22:20:52.780Z,38.17
2017-11-07T22:23:24.683Z,42.07
2017-11-07T22:25:50.772Z,38.47
2017-11-07T22:28:16.903Z,41.00
2017-11-07T22:30:42.951Z,41.63
2017-11-07T22:33:09.020Z,44.67
2017-11-07T22:35:35.108Z,44.87
2017-11-07T22:38:01.118Z,37.37
2017-11-07T22:40:27.218Z,41.33
2017-11-07T22:42:53.355Z,43.80
2017-11-07T22:45:19.457Z,42.67
2017-11-07T22:47:45.547Z,44.37
2017-11-07T22:50:11.633Z,41.87
2017-11-07T22:52:37.715Z,38.60
2017-11-07T22:55:03.922Z,39.77
2017-11-07T22:57:30.058Z,39.70
2017-11-07T22:59:56.124Z,36.57
2017-11-07T23:02:22.203Z,37.77
2017-11-07T23:04:48.388Z,41.57
2017-11-07T23:07:14.610Z,42.80
2017-11-07T23:09:40.707Z,39.87
2017-11-07T23:12:06.811Z,35.97
2017-11-07T23:14:34.874Z,41.60
2017-11-07T23:17:00.958Z,40.00
2017-11-07T23:19:27.108Z,41.10
2017-11-07T23:21:53.378Z,43.70
2017-11-07T23:24:19.444Z,43.30
2017-11-07T23:26:45.582Z,42.63
2017-11-07T23:29:11.662Z,40.83
2017-11-07T23:31:37.807Z,38.40
2017-11-07T23:34:03.899Z,44.30
2017-11-07T23:36:29.974Z,40.30
2017-11-07T23:38:56.103Z,37.03
2017-11-07T23:41:22.187Z,40.67
2017-11-07T23:43:48.299Z,42.77
2017-11-07T23:46:14.366Z,44.30
2017-11-07T23:48:40.423Z,42.27
2017-11-07T23:51:06.524Z,40.23
2017-11-07T23:53:32.606Z,40.77
2017-11-07T23:55:58.831Z,40.40
2017-11-07T23:58:24.936Z,44.00
